sensor_id;sensor_type;location;lat;lon;timestamp;P1;durP1;ratioP1;P2;durP2;ratioP2
17844;SDS011;9047;53.486;10.218;2022-07-05T00:00:13;4.15;;;2.10;;
17844;SDS011;9047;53.486;10.218;2022-07-05T00:02:53;6.18;;;2.30;;
17844;SDS011;9047;53.486;10.218;2022-07-05T00:05:23;3.85;;;1.83;;
17844;SDS011;9047;53.486;10.218;2022-07-05T00:07:51;6.22;;;2.10;;
17844;SDS011;9047;53.486;10.218;2022-07-05T00:10:20;4.90;;;2.00;;
17844;SDS011;9047;53.486;10.218;2022-07-05T00:12:57;5.65;;;1.80;;
17844;SDS011;9047;53.486;10.218;2022-07-05T00:15:25;4.28;;;2.10;;
17844;SDS011;9047;53.486;10.218;2022-07-05T00:17:57;3.25;;;1.80;;
17844;SDS011;9047;53.486;10.218;2022-07-05T00:20:26;7.38;;;2.10;;
17844;SDS011;9047;53.486;10.218;2022-07-05T00:22:55;4.03;;;2.00;;
17844;SDS011;9047;53.486;10.218;2022-07-05T00:25:24;4.18;;;2.20;;
17844;SDS011;9047;53.486;10.218;2022-07-05T00:27:54;5.00;;;2.08;;
17844;SDS011;9047;53.486;10.218;2022-07-05T00:30:25;4.20;;;1.90;;
17844;SDS011;9047;53.486;10.218;2022-07-05T00:35:41;5.93;;;2.38;;
17844;SDS011;9047;53.486;10.218;2022-07-05T00:38:12;5.78;;;2.40;;
17844;SDS011;9047;53.486;10.218;2022-07-05T00:40:43;4.70;;;2.50;;
17844;SDS011;9047;53.486;10.218;2022-07-05T00:43:24;4.32;;;2.22;;
17844;SDS011;9047;53.486;10.218;2022-07-05T00:46:07;5.00;;;2.92;;
17844;SDS011;9047;53.486;10.218;2022-07-05T00:48:37;4.10;;;2.42;;
17844;SDS011;9047;53.486;10.218;2022-07-05T00:51:06;7.15;;;2.65;;
17844;SDS011;9047;53.486;10.218;2022-07-05T00:53:37;5.50;;;2.70;;
17844;SDS011;9047;53.486;10.218;2022-07-05T00:56:10;7.63;;;2.75;;
17844;SDS011;9047;53.486;10.218;2022-07-05T00:58:40;6.32;;;2.80;;
17844;SDS011;9047;53.486;10.218;2022-07-05T01:01:09;6.95;;;2.90;;
17844;SDS011;9047;53.486;10.218;2022-07-05T01:06:26;5.32;;;2.70;;
17844;SDS011;9047;53.486;10.218;2022-07-05T01:08:56;9.75;;;2.95;;
17844;SDS011;9047;53.486;10.218;2022-07-05T01:11:26;6.03;;;3.10;;
17844;SDS011;9047;53.486;10.218;2022-07-05T01:13:58;5.20;;;2.35;;
17844;SDS011;9047;53.486;10.218;2022-07-05T01:16:31;5.75;;;2.80;;
17844;SDS011;9047;53.486;10.218;2022-07-05T01:19:14;6.53;;;3.10;;
17844;SDS011;9047;53.486;10.218;2022-07-05T01:21:43;6.18;;;3.15;;
17844;SDS011;9047;53.486;10.218;2022-07-05T01:24:17;3.55;;;2.80;;
17844;SDS011;9047;53.486;10.218;2022-07-05T01:26:50;5.82;;;3.00;;
17844;SDS011;9047;53.486;10.218;2022-07-05T01:29:20;7.60;;;3.20;;
17844;SDS011;9047;53.486;10.218;2022-07-05T01:31:51;5.00;;;2.92;;
17844;SDS011;9047;53.486;10.218;2022-07-05T01:34:22;6.88;;;3.20;;
17844;SDS011;9047;53.486;10.218;2022-07-05T01:36:52;8.10;;;3.30;;
17844;SDS011;9047;53.486;10.218;2022-07-05T01:39:22;6.20;;;2.90;;
17844;SDS011;9047;53.486;10.218;2022-07-05T01:41:57;6.60;;;2.90;;
17844;SDS011;9047;53.486;10.218;2022-07-05T01:44:31;6.75;;;3.45;;
17844;SDS011;9047;53.486;10.218;2022-07-05T01:47:03;8.18;;;3.35;;
17844;SDS011;9047;53.486;10.218;2022-07-05T01:49:37;4.97;;;2.92;;
17844;SDS011;9047;53.486;10.218;2022-07-05T01:52:31;7.85;;;2.88;;
17844;SDS011;9047;53.486;10.218;2022-07-05T01:55:03;5.45;;;3.40;;
17844;SDS011;9047;53.486;10.218;2022-07-05T01:57:35;5.38;;;3.00;;
17844;SDS011;9047;53.486;10.218;2022-07-05T02:00:08;6.45;;;2.97;;
17844;SDS011;9047;53.486;10.218;2022-07-05T02:02:39;7.25;;;3.45;;
17844;SDS011;9047;53.486;10.218;2022-07-05T02:05:10;8.23;;;3.30;;
17844;SDS011;9047;53.486;10.218;2022-07-05T02:07:46;7.53;;;3.25;;
17844;SDS011;9047;53.486;10.218;2022-07-05T02:10:16;6.28;;;3.03;;
17844;SDS011;9047;53.486;10.218;2022-07-05T02:12:50;5.45;;;2.97;;
17844;SDS011;9047;53.486;10.218;2022-07-05T02:15:18;5.95;;;3.30;;
17844;SDS011;9047;53.486;10.218;2022-07-05T02:17:51;6.65;;;3.33;;
17844;SDS011;9047;53.486;10.218;2022-07-05T02:20:18;8.18;;;3.67;;
17844;SDS011;9047;53.486;10.218;2022-07-05T02:22:51;8.15;;;3.03;;
17844;SDS011;9047;53.486;10.218;2022-07-05T02:25:23;5.25;;;2.92;;
17844;SDS011;9047;53.486;10.218;2022-07-05T02:27:58;9.35;;;3.38;;
17844;SDS011;9047;53.486;10.218;2022-07-05T02:30:26;9.63;;;3.35;;
17844;SDS011;9047;53.486;10.218;2022-07-05T02:32:55;5.70;;;2.80;;
17844;SDS011;9047;53.486;10.218;2022-07-05T02:35:25;4.88;;;3.08;;
17844;SDS011;9047;53.486;10.218;2022-07-05T02:37:56;4.57;;;3.20;;
17844;SDS011;9047;53.486;10.218;2022-07-05T02:40:27;6.10;;;3.30;;
17844;SDS011;9047;53.486;10.218;2022-07-05T02:42:55;8.23;;;2.97;;
17844;SDS011;9047;53.486;10.218;2022-07-05T02:45:27;6.95;;;3.33;;
17844;SDS011;9047;53.486;10.218;2022-07-05T02:47:58;4.43;;;3.08;;
17844;SDS011;9047;53.486;10.218;2022-07-05T02:50:25;7.80;;;3.65;;
17844;SDS011;9047;53.486;10.218;2022-07-05T02:52:57;7.03;;;3.10;;
17844;SDS011;9047;53.486;10.218;2022-07-05T02:55:32;6.13;;;3.47;;
17844;SDS011;9047;53.486;10.218;2022-07-05T02:58:07;6.00;;;3.00;;
17844;SDS011;9047;53.486;10.218;2022-07-05T03:00:38;8.57;;;3.58;;
17844;SDS011;9047;53.486;10.218;2022-07-05T03:03:12;8.27;;;3.55;;
17844;SDS011;9047;53.486;10.218;2022-07-05T03:05:46;4.97;;;3.17;;
17844;SDS011;9047;53.486;10.218;2022-07-05T03:08:14;7.15;;;3.20;;
17844;SDS011;9047;53.486;10.218;2022-07-05T03:10:50;6.03;;;3.50;;
17844;SDS011;9047;53.486;10.218;2022-07-05T03:13:19;4.53;;;3.08;;
17844;SDS011;9047;53.486;10.218;2022-07-05T03:15:47;6.95;;;3.38;;
17844;SDS011;9047;53.486;10.218;2022-07-05T03:18:17;6.15;;;3.88;;
17844;SDS011;9047;53.486;10.218;2022-07-05T03:20:50;5.43;;;2.90;;
17844;SDS011;9047;53.486;10.218;2022-07-05T03:23:22;5.35;;;3.55;;
17844;SDS011;9047;53.486;10.218;2022-07-05T03:25:59;7.25;;;3.35;;
17844;SDS011;9047;53.486;10.218;2022-07-05T03:28:29;6.90;;;3.47;;
17844;SDS011;9047;53.486;10.218;2022-07-05T03:31:02;5.00;;;3.30;;
17844;SDS011;9047;53.486;10.218;2022-07-05T03:33:31;5.00;;;3.30;;
17844;SDS011;9047;53.486;10.218;2022-07-05T03:36:01;4.97;;;3.45;;
17844;SDS011;9047;53.486;10.218;2022-07-05T03:38:32;5.97;;;3.30;;
17844;SDS011;9047;53.486;10.218;2022-07-05T03:41:02;7.38;;;3.75;;
17844;SDS011;9047;53.486;10.218;2022-07-05T03:43:29;5.53;;;3.50;;
17844;SDS011;9047;53.486;10.218;2022-07-05T03:46:00;9.70;;;4.55;;
17844;SDS011;9047;53.486;10.218;2022-07-05T03:48:29;4.82;;;3.08;;
17844;SDS011;9047;53.486;10.218;2022-07-05T03:50:59;6.70;;;3.60;;
17844;SDS011;9047;53.486;10.218;2022-07-05T03:53:29;6.32;;;3.45;;
17844;SDS011;9047;53.486;10.218;2022-07-05T03:55:57;5.10;;;3.20;;
17844;SDS011;9047;53.486;10.218;2022-07-05T03:58:31;5.45;;;3.80;;
17844;SDS011;9047;53.486;10.218;2022-07-05T04:01:01;3.97;;;3.20;;
17844;SDS011;9047;53.486;10.218;2022-07-05T04:03:29;6.75;;;3.90;;
17844;SDS011;9047;53.486;10.218;2022-07-05T04:06:04;6.70;;;3.70;;
17844;SDS011;9047;53.486;10.218;2022-07-05T04:08:40;8.35;;;3.58;;
17844;SDS011;9047;53.486;10.218;2022-07-05T04:11:10;4.47;;;3.47;;
17844;SDS011;9047;53.486;10.218;2022-07-05T04:13:41;4.72;;;3.35;;
17844;SDS011;9047;53.486;10.218;2022-07-05T04:16:10;5.60;;;3.28;;
17844;SDS011;9047;53.486;10.218;2022-07-05T04:18:38;6.28;;;4.00;;
17844;SDS011;9047;53.486;10.218;2022-07-05T04:21:08;6.10;;;4.07;;
17844;SDS011;9047;53.486;10.218;2022-07-05T04:23:37;5.93;;;3.60;;
17844;SDS011;9047;53.486;10.218;2022-07-05T04:26:06;7.55;;;3.42;;
17844;SDS011;9047;53.486;10.218;2022-07-05T04:28:42;6.93;;;3.17;;
17844;SDS011;9047;53.486;10.218;2022-07-05T04:31:15;6.95;;;3.55;;
17844;SDS011;9047;53.486;10.218;2022-07-05T04:33:49;4.05;;;2.85;;
17844;SDS011;9047;53.486;10.218;2022-07-05T04:36:17;7.03;;;3.10;;
17844;SDS011;9047;53.486;10.218;2022-07-05T04:38:52;5.55;;;2.70;;
17844;SDS011;9047;53.486;10.218;2022-07-05T04:41:42;5.65;;;3.10;;
17844;SDS011;9047;53.486;10.218;2022-07-05T04:44:27;9.10;;;3.28;;
17844;SDS011;9047;53.486;10.218;2022-07-05T04:47:12;4.47;;;2.80;;
17844;SDS011;9047;53.486;10.218;2022-07-05T04:49:43;4.88;;;2.70;;
17844;SDS011;9047;53.486;10.218;2022-07-05T04:52:12;5.78;;;3.20;;
17844;SDS011;9047;53.486;10.218;2022-07-05T04:54:51;7.38;;;3.33;;
17844;SDS011;9047;53.486;10.218;2022-07-05T04:57:31;5.47;;;2.90;;
17844;SDS011;9047;53.486;10.218;2022-07-05T05:00:04;6.78;;;3.58;;
17844;SDS011;9047;53.486;10.218;2022-07-05T05:02:33;9.10;;;3.65;;
17844;SDS011;9047;53.486;10.218;2022-07-05T05:05:03;5.00;;;3.42;;
17844;SDS011;9047;53.486;10.218;2022-07-05T05:11:14;7.43;;;3.33;;
17844;SDS011;9047;53.486;10.218;2022-07-05T05:20:14;8.00;;;3.40;;
17844;SDS011;9047;53.486;10.218;2022-07-05T05:22:47;5.22;;;3.00;;
17844;SDS011;9047;53.486;10.218;2022-07-05T05:25:19;6.35;;;3.22;;
17844;SDS011;9047;53.486;10.218;2022-07-05T05:28:04;6.85;;;3.00;;
17844;SDS011;9047;53.486;10.218;2022-07-05T05:30:48;7.28;;;2.90;;
17844;SDS011;9047;53.486;10.218;2022-07-05T05:33:18;19.15;;;3.90;;
17844;SDS011;9047;53.486;10.218;2022-07-05T05:35:47;22.42;;;3.33;;
17844;SDS011;9047;53.486;10.218;2022-07-05T05:38:15;16.05;;;3.22;;
17844;SDS011;9047;53.486;10.218;2022-07-05T05:40:50;13.98;;;3.38;;
17844;SDS011;9047;53.486;10.218;2022-07-05T05:43:18;6.43;;;2.90;;
17844;SDS011;9047;53.486;10.218;2022-07-05T05:45:51;5.90;;;2.60;;
17844;SDS011;9047;53.486;10.218;2022-07-05T05:48:25;4.18;;;2.47;;
17844;SDS011;9047;53.486;10.218;2022-07-05T05:50:52;6.00;;;2.80;;
17844;SDS011;9047;53.486;10.218;2022-07-05T05:53:22;5.18;;;2.67;;
17844;SDS011;9047;53.486;10.218;2022-07-05T05:55:52;5.20;;;2.70;;
17844;SDS011;9047;53.486;10.218;2022-07-05T05:58:19;4.88;;;2.60;;
17844;SDS011;9047;53.486;10.218;2022-07-05T06:00:53;5.97;;;2.75;;
17844;SDS011;9047;53.486;10.218;2022-07-05T06:03:23;5.30;;;2.90;;
17844;SDS011;9047;53.486;10.218;2022-07-05T06:05:53;6.03;;;2.60;;
17844;SDS011;9047;53.486;10.218;2022-07-05T06:08:21;6.10;;;2.42;;
17844;SDS011;9047;53.486;10.218;2022-07-05T06:10:50;3.72;;;2.20;;
17844;SDS011;9047;53.486;10.218;2022-07-05T06:13:24;6.85;;;2.25;;
17844;SDS011;9047;53.486;10.218;2022-07-05T06:15:57;3.65;;;2.10;;
17844;SDS011;9047;53.486;10.218;2022-07-05T06:18:28;7.30;;;2.50;;
17844;SDS011;9047;53.486;10.218;2022-07-05T06:20:55;7.10;;;2.17;;
17844;SDS011;9047;53.486;10.218;2022-07-05T06:23:25;5.53;;;2.08;;
17844;SDS011;9047;53.486;10.218;2022-07-05T06:25:54;7.03;;;3.58;;
17844;SDS011;9047;53.486;10.218;2022-07-05T06:28:26;3.85;;;1.80;;
17844;SDS011;9047;53.486;10.218;2022-07-05T06:30:54;3.38;;;1.50;;
17844;SDS011;9047;53.486;10.218;2022-07-05T06:33:26;15.25;;;1.98;;
17844;SDS011;9047;53.486;10.218;2022-07-05T06:35:55;8.95;;;1.55;;
17844;SDS011;9047;53.486;10.218;2022-07-05T06:38:33;6.85;;;1.58;;
17844;SDS011;9047;53.486;10.218;2022-07-05T06:41:02;5.40;;;1.42;;
17844;SDS011;9047;53.486;10.218;2022-07-05T06:43:29;3.80;;;1.17;;
17844;SDS011;9047;53.486;10.218;2022-07-05T06:45:58;3.80;;;1.20;;
17844;SDS011;9047;53.486;10.218;2022-07-05T06:48:32;9.75;;;1.27;;
17844;SDS011;9047;53.486;10.218;2022-07-05T06:51:10;8.27;;;1.75;;
17844;SDS011;9047;53.486;10.218;2022-07-05T06:53:38;3.30;;;1.20;;
17844;SDS011;9047;53.486;10.218;2022-07-05T06:56:05;6.70;;;1.52;;
17844;SDS011;9047;53.486;10.218;2022-07-05T06:58:37;3.38;;;1.20;;
17844;SDS011;9047;53.486;10.218;2022-07-05T07:01:04;4.10;;;1.20;;
17844;SDS011;9047;53.486;10.218;2022-07-05T07:03:35;3.75;;;1.05;;
17844;SDS011;9047;53.486;10.218;2022-07-05T07:06:05;3.17;;;1.02;;
17844;SDS011;9047;53.486;10.218;2022-07-05T07:08:32;2.63;;;1.10;;
17844;SDS011;9047;53.486;10.218;2022-07-05T07:11:16;6.28;;;1.20;;
17844;SDS011;9047;53.486;10.218;2022-07-05T07:13:44;5.13;;;1.30;;
17844;SDS011;9047;53.486;10.218;2022-07-05T07:16:11;2.83;;;1.00;;
17844;SDS011;9047;53.486;10.218;2022-07-05T07:18:42;5.63;;;1.30;;
17844;SDS011;9047;53.486;10.218;2022-07-05T07:21:12;5.65;;;1.52;;
17844;SDS011;9047;53.486;10.218;2022-07-05T07:23:41;3.47;;;0.90;;
17844;SDS011;9047;53.486;10.218;2022-07-05T07:26:09;4.47;;;1.00;;
17844;SDS011;9047;53.486;10.218;2022-07-05T07:28:38;2.83;;;1.10;;
17844;SDS011;9047;53.486;10.218;2022-07-05T07:31:16;4.53;;;1.00;;
17844;SDS011;9047;53.486;10.218;2022-07-05T07:36:40;2.55;;;0.90;;
17844;SDS011;9047;53.486;10.218;2022-07-05T07:39:08;5.10;;;1.13;;
17844;SDS011;9047;53.486;10.218;2022-07-05T07:41:40;2.70;;;0.90;;
17844;SDS011;9047;53.486;10.218;2022-07-05T07:44:08;1.48;;;0.70;;
17844;SDS011;9047;53.486;10.218;2022-07-05T07:46:34;1.77;;;0.70;;
17844;SDS011;9047;53.486;10.218;2022-07-05T07:49:05;1.60;;;0.60;;
17844;SDS011;9047;53.486;10.218;2022-07-05T07:51:39;2.42;;;0.63;;
17844;SDS011;9047;53.486;10.218;2022-07-05T07:54:06;3.22;;;0.95;;
17844;SDS011;9047;53.486;10.218;2022-07-05T07:56:34;2.95;;;0.73;;
17844;SDS011;9047;53.486;10.218;2022-07-05T07:59:02;2.78;;;0.85;;
17844;SDS011;9047;53.486;10.218;2022-07-05T08:01:38;3.85;;;0.70;;
17844;SDS011;9047;53.486;10.218;2022-07-05T08:04:06;3.38;;;0.80;;
17844;SDS011;9047;53.486;10.218;2022-07-05T08:06:33;6.07;;;0.90;;
17844;SDS011;9047;53.486;10.218;2022-07-05T08:09:00;1.80;;;0.93;;
17844;SDS011;9047;53.486;10.218;2022-07-05T08:11:27;3.30;;;0.88;;
17844;SDS011;9047;53.486;10.218;2022-07-05T08:13:55;3.17;;;0.88;;
17844;SDS011;9047;53.486;10.218;2022-07-05T08:16:25;2.10;;;0.90;;
17844;SDS011;9047;53.486;10.218;2022-07-05T08:18:53;5.00;;;0.90;;
17844;SDS011;9047;53.486;10.218;2022-07-05T08:21:39;1.63;;;0.80;;
17844;SDS011;9047;53.486;10.218;2022-07-05T08:24:07;2.03;;;0.77;;
17844;SDS011;9047;53.486;10.218;2022-07-05T08:26:37;2.28;;;0.73;;
17844;SDS011;9047;53.486;10.218;2022-07-05T08:29:07;3.40;;;0.75;;
17844;SDS011;9047;53.486;10.218;2022-07-05T08:31:37;1.38;;;0.60;;
17844;SDS011;9047;53.486;10.218;2022-07-05T08:34:09;1.00;;;0.50;;
17844;SDS011;9047;53.486;10.218;2022-07-05T08:36:36;2.67;;;0.77;;
17844;SDS011;9047;53.486;10.218;2022-07-05T08:39:06;4.82;;;0.73;;
17844;SDS011;9047;53.486;10.218;2022-07-05T08:41:35;1.23;;;0.60;;
17844;SDS011;9047;53.486;10.218;2022-07-05T08:44:04;3.13;;;0.68;;
17844;SDS011;9047;53.486;10.218;2022-07-05T08:46:39;2.15;;;0.60;;
17844;SDS011;9047;53.486;10.218;2022-07-05T08:49:06;1.95;;;0.65;;
17844;SDS011;9047;53.486;10.218;2022-07-05T08:51:36;5.63;;;0.80;;
17844;SDS011;9047;53.486;10.218;2022-07-05T08:54:11;4.45;;;0.50;;
17844;SDS011;9047;53.486;10.218;2022-07-05T08:56:42;5.28;;;0.70;;
17844;SDS011;9047;53.486;10.218;2022-07-05T08:59:36;3.33;;;0.80;;
17844;SDS011;9047;53.486;10.218;2022-07-05T09:02:10;0.95;;;0.50;;
17844;SDS011;9047;53.486;10.218;2022-07-05T09:04:48;4.68;;;0.70;;
17844;SDS011;9047;53.486;10.218;2022-07-05T09:07:40;2.53;;;0.60;;
17844;SDS011;9047;53.486;10.218;2022-07-05T09:10:21;1.52;;;0.70;;
17844;SDS011;9047;53.486;10.218;2022-07-05T09:12:51;2.15;;;0.60;;
17844;SDS011;9047;53.486;10.218;2022-07-05T09:15:22;1.90;;;0.50;;
17844;SDS011;9047;53.486;10.218;2022-07-05T09:17:54;1.05;;;0.50;;
17844;SDS011;9047;53.486;10.218;2022-07-05T09:20:26;2.47;;;0.63;;
17844;SDS011;9047;53.486;10.218;2022-07-05T09:22:56;1.30;;;0.60;;
17844;SDS011;9047;53.486;10.218;2022-07-05T09:25:30;1.27;;;0.75;;
17844;SDS011;9047;53.486;10.218;2022-07-05T09:28:02;2.58;;;0.70;;
17844;SDS011;9047;53.486;10.218;2022-07-05T09:30:34;1.85;;;0.63;;
17844;SDS011;9047;53.486;10.218;2022-07-05T09:33:05;3.30;;;0.60;;
17844;SDS011;9047;53.486;10.218;2022-07-05T09:35:36;4.18;;;0.63;;
17844;SDS011;9047;53.486;10.218;2022-07-05T09:38:04;5.53;;;0.80;;
17844;SDS011;9047;53.486;10.218;2022-07-05T09:40:44;6.18;;;1.08;;
17844;SDS011;9047;53.486;10.218;2022-07-05T09:43:14;3.55;;;0.57;;
17844;SDS011;9047;53.486;10.218;2022-07-05T09:45:50;1.73;;;0.88;;
17844;SDS011;9047;53.486;10.218;2022-07-05T09:48:29;1.90;;;0.80;;
17844;SDS011;9047;53.486;10.218;2022-07-05T09:51:07;5.03;;;1.05;;
17844;SDS011;9047;53.486;10.218;2022-07-05T09:53:46;1.42;;;0.80;;
17844;SDS011;9047;53.486;10.218;2022-07-05T09:56:16;1.58;;;0.80;;
17844;SDS011;9047;53.486;10.218;2022-07-05T09:58:44;3.67;;;0.70;;
17844;SDS011;9047;53.486;10.218;2022-07-05T10:01:25;3.97;;;0.60;;
17844;SDS011;9047;53.486;10.218;2022-07-05T10:03:56;2.58;;;0.55;;
17844;SDS011;9047;53.486;10.218;2022-07-05T10:06:27;3.20;;;0.80;;
17844;SDS011;9047;53.486;10.218;2022-07-05T10:08:58;3.03;;;0.90;;
17844;SDS011;9047;53.486;10.218;2022-07-05T10:11:30;1.48;;;0.70;;
17844;SDS011;9047;53.486;10.218;2022-07-05T10:14:00;3.92;;;0.60;;
17844;SDS011;9047;53.486;10.218;2022-07-05T10:16:31;3.55;;;0.57;;
17844;SDS011;9047;53.486;10.218;2022-07-05T10:19:02;4.20;;;0.60;;
17844;SDS011;9047;53.486;10.218;2022-07-05T10:21:36;7.20;;;0.80;;
17844;SDS011;9047;53.486;10.218;2022-07-05T10:24:07;3.20;;;0.70;;
17844;SDS011;9047;53.486;10.218;2022-07-05T10:26:38;2.08;;;0.50;;
17844;SDS011;9047;53.486;10.218;2022-07-05T10:29:07;1.27;;;0.60;;
17844;SDS011;9047;53.486;10.218;2022-07-05T10:31:38;3.05;;;0.60;;
17844;SDS011;9047;53.486;10.218;2022-07-05T10:34:05;1.10;;;0.55;;
17844;SDS011;9047;53.486;10.218;2022-07-05T10:36:37;2.08;;;0.70;;
17844;SDS011;9047;53.486;10.218;2022-07-05T10:39:06;1.70;;;0.70;;
17844;SDS011;9047;53.486;10.218;2022-07-05T10:41:35;2.10;;;0.52;;
17844;SDS011;9047;53.486;10.218;2022-07-05T10:44:26;1.23;;;0.60;;
17844;SDS011;9047;53.486;10.218;2022-07-05T10:47:08;1.55;;;0.50;;
17844;SDS011;9047;53.486;10.218;2022-07-05T10:49:39;3.75;;;0.70;;
17844;SDS011;9047;53.486;10.218;2022-07-05T10:52:23;1.23;;;0.52;;
17844;SDS011;9047;53.486;10.218;2022-07-05T11:07:00;4.53;;;0.80;;
17844;SDS011;9047;53.486;10.218;2022-07-05T11:09:29;2.58;;;0.60;;
17844;SDS011;9047;53.486;10.218;2022-07-05T11:12:05;3.10;;;0.60;;
17844;SDS011;9047;53.486;10.218;2022-07-05T11:14:38;1.80;;;0.63;;
17844;SDS011;9047;53.486;10.218;2022-07-05T11:20:08;2.38;;;0.70;;
17844;SDS011;9047;53.486;10.218;2022-07-05T11:23:06;1.85;;;0.60;;
17844;SDS011;9047;53.486;10.218;2022-07-05T11:25:35;2.15;;;0.77;;
17844;SDS011;9047;53.486;10.218;2022-07-05T11:30:56;2.90;;;0.68;;
17844;SDS011;9047;53.486;10.218;2022-07-05T11:33:41;2.20;;;0.60;;
17844;SDS011;9047;53.486;10.218;2022-07-05T11:36:20;2.28;;;0.60;;
17844;SDS011;9047;53.486;10.218;2022-07-05T11:41:49;5.60;;;0.88;;
17844;SDS011;9047;53.486;10.218;2022-07-05T11:44:17;1.95;;;0.60;;
17844;SDS011;9047;53.486;10.218;2022-07-05T11:47:02;0.95;;;0.55;;
17844;SDS011;9047;53.486;10.218;2022-07-05T11:49:34;3.92;;;0.75;;
17844;SDS011;9047;53.486;10.218;2022-07-05T11:52:02;5.93;;;1.15;;
17844;SDS011;9047;53.486;10.218;2022-07-05T11:54:31;5.13;;;0.88;;
17844;SDS011;9047;53.486;10.218;2022-07-05T11:57:00;9.25;;;1.13;;
17844;SDS011;9047;53.486;10.218;2022-07-05T11:59:27;2.22;;;0.60;;
17844;SDS011;9047;53.486;10.218;2022-07-05T12:01:55;3.63;;;0.82;;
17844;SDS011;9047;53.486;10.218;2022-07-05T12:04:23;2.25;;;0.70;;
17844;SDS011;9047;53.486;10.218;2022-07-05T12:06:57;3.13;;;0.73;;
17844;SDS011;9047;53.486;10.218;2022-07-05T12:09:24;3.00;;;0.60;;
17844;SDS011;9047;53.486;10.218;2022-07-05T12:12:16;15.10;;;1.40;;
17844;SDS011;9047;53.486;10.218;2022-07-05T12:15:04;1.90;;;0.80;;
17844;SDS011;9047;53.486;10.218;2022-07-05T12:17:50;3.80;;;0.60;;
17844;SDS011;9047;53.486;10.218;2022-07-05T12:20:20;2.10;;;0.75;;
17844;SDS011;9047;53.486;10.218;2022-07-05T12:22:52;5.38;;;0.80;;
17844;SDS011;9047;53.486;10.218;2022-07-05T12:25:20;3.00;;;0.90;;
17844;SDS011;9047;53.486;10.218;2022-07-05T12:27:56;1.80;;;0.60;;
17844;SDS011;9047;53.486;10.218;2022-07-05T12:30:32;1.98;;;0.70;;
17844;SDS011;9047;53.486;10.218;2022-07-05T12:33:01;3.53;;;0.80;;
17844;SDS011;9047;53.486;10.218;2022-07-05T12:35:34;3.35;;;0.60;;
17844;SDS011;9047;53.486;10.218;2022-07-05T12:38:19;2.65;;;0.77;;
17844;SDS011;9047;53.486;10.218;2022-07-05T12:40:56;2.55;;;0.70;;
17844;SDS011;9047;53.486;10.218;2022-07-05T12:43:25;3.65;;;0.70;;
17844;SDS011;9047;53.486;10.218;2022-07-05T12:46:01;1.48;;;0.65;;
17844;SDS011;9047;53.486;10.218;2022-07-05T12:48:34;0.85;;;0.60;;
17844;SDS011;9047;53.486;10.218;2022-07-05T12:51:07;4.22;;;0.75;;
17844;SDS011;9047;53.486;10.218;2022-07-05T12:53:45;4.32;;;0.50;;
17844;SDS011;9047;53.486;10.218;2022-07-05T12:56:33;3.08;;;0.75;;
17844;SDS011;9047;53.486;10.218;2022-07-05T12:59:18;2.67;;;0.80;;
17844;SDS011;9047;53.486;10.218;2022-07-05T13:01:58;4.55;;;0.68;;
17844;SDS011;9047;53.486;10.218;2022-07-05T13:04:25;2.28;;;0.68;;
17844;SDS011;9047;53.486;10.218;2022-07-05T13:06:53;4.00;;;0.70;;
17844;SDS011;9047;53.486;10.218;2022-07-05T13:09:32;1.50;;;0.70;;
17844;SDS011;9047;53.486;10.218;2022-07-05T13:12:16;1.38;;;0.50;;
17844;SDS011;9047;53.486;10.218;2022-07-05T13:15:00;1.23;;;0.70;;
17844;SDS011;9047;53.486;10.218;2022-07-05T13:17:35;3.22;;;0.88;;
17844;SDS011;9047;53.486;10.218;2022-07-05T13:20:04;3.30;;;0.80;;
17844;SDS011;9047;53.486;10.218;2022-07-05T13:22:35;2.53;;;0.70;;
17844;SDS011;9047;53.486;10.218;2022-07-05T13:25:13;1.63;;;0.80;;
17844;SDS011;9047;53.486;10.218;2022-07-05T13:27:42;4.22;;;0.80;;
17844;SDS011;9047;53.486;10.218;2022-07-05T13:30:10;1.08;;;0.52;;
17844;SDS011;9047;53.486;10.218;2022-07-05T13:32:38;2.95;;;0.73;;
17844;SDS011;9047;53.486;10.218;2022-07-05T13:35:07;2.58;;;0.77;;
17844;SDS011;9047;53.486;10.218;2022-07-05T13:37:40;2.70;;;0.60;;
17844;SDS011;9047;53.486;10.218;2022-07-05T13:40:13;5.28;;;0.90;;
17844;SDS011;9047;53.486;10.218;2022-07-05T13:42:52;1.65;;;0.60;;
17844;SDS011;9047;53.486;10.218;2022-07-05T13:45:21;5.65;;;1.05;;
17844;SDS011;9047;53.486;10.218;2022-07-05T13:47:50;7.75;;;0.80;;
17844;SDS011;9047;53.486;10.218;2022-07-05T13:50:22;4.95;;;1.20;;
17844;SDS011;9047;53.486;10.218;2022-07-05T13:53:03;3.85;;;1.00;;
17844;SDS011;9047;53.486;10.218;2022-07-05T13:55:33;3.70;;;1.08;;
17844;SDS011;9047;53.486;10.218;2022-07-05T13:58:01;2.15;;;0.80;;
17844;SDS011;9047;53.486;10.218;2022-07-05T14:00:28;4.78;;;1.40;;
17844;SDS011;9047;53.486;10.218;2022-07-05T14:02:56;3.83;;;0.95;;
17844;SDS011;9047;53.486;10.218;2022-07-05T14:05:23;3.28;;;0.93;;
17844;SDS011;9047;53.486;10.218;2022-07-05T14:07:51;4.55;;;1.00;;
17844;SDS011;9047;53.486;10.218;2022-07-05T14:10:20;6.50;;;1.50;;
17844;SDS011;9047;53.486;10.218;2022-07-05T14:12:49;6.75;;;1.30;;
17844;SDS011;9047;53.486;10.218;2022-07-05T14:15:17;6.93;;;1.50;;
17844;SDS011;9047;53.486;10.218;2022-07-05T14:17:45;5.10;;;1.27;;
17844;SDS011;9047;53.486;10.218;2022-07-05T14:20:12;7.05;;;1.50;;
17844;SDS011;9047;53.486;10.218;2022-07-05T14:22:45;3.85;;;0.70;;
17844;SDS011;9047;53.486;10.218;2022-07-05T14:25:11;2.97;;;1.00;;
17844;SDS011;9047;53.486;10.218;2022-07-05T14:27:38;4.63;;;1.10;;
17844;SDS011;9047;53.486;10.218;2022-07-05T14:30:11;1.98;;;0.73;;
17844;SDS011;9047;53.486;10.218;2022-07-05T14:32:42;3.40;;;0.77;;
17844;SDS011;9047;53.486;10.218;2022-07-05T14:35:10;1.85;;;0.90;;
17844;SDS011;9047;53.486;10.218;2022-07-05T14:37:39;3.60;;;0.88;;
17844;SDS011;9047;53.486;10.218;2022-07-05T14:40:07;2.58;;;1.00;;
17844;SDS011;9047;53.486;10.218;2022-07-05T14:42:34;2.50;;;1.00;;
17844;SDS011;9047;53.486;10.218;2022-07-05T14:50:40;1.30;;;0.80;;
17844;SDS011;9047;53.486;10.218;2022-07-05T14:53:17;3.65;;;0.70;;
17844;SDS011;9047;53.486;10.218;2022-07-05T14:55:49;2.55;;;1.10;;
17844;SDS011;9047;53.486;10.218;2022-07-05T14:58:17;5.65;;;1.20;;
17844;SDS011;9047;53.486;10.218;2022-07-05T15:00:47;3.40;;;1.08;;
17844;SDS011;9047;53.486;10.218;2022-07-05T15:03:29;1.67;;;0.80;;
17844;SDS011;9047;53.486;10.218;2022-07-05T15:05:58;1.80;;;0.85;;
17844;SDS011;9047;53.486;10.218;2022-07-05T15:08:31;3.53;;;0.93;;
17844;SDS011;9047;53.486;10.218;2022-07-05T15:11:13;1.92;;;0.75;;
17844;SDS011;9047;53.486;10.218;2022-07-05T15:14:09;2.58;;;0.70;;
17844;SDS011;9047;53.486;10.218;2022-07-05T15:16:40;2.38;;;0.70;;
17844;SDS011;9047;53.486;10.218;2022-07-05T15:19:09;2.83;;;0.80;;
17844;SDS011;9047;53.486;10.218;2022-07-05T15:24:58;3.13;;;0.70;;
17844;SDS011;9047;53.486;10.218;2022-07-05T15:27:34;2.08;;;1.00;;
17844;SDS011;9047;53.486;10.218;2022-07-05T15:30:04;1.92;;;0.90;;
17844;SDS011;9047;53.486;10.218;2022-07-05T15:32:38;4.05;;;1.20;;
17844;SDS011;9047;53.486;10.218;2022-07-05T15:35:30;6.35;;;1.45;;
17844;SDS011;9047;53.486;10.218;2022-07-05T15:38:00;2.55;;;1.10;;
17844;SDS011;9047;53.486;10.218;2022-07-05T15:40:42;7.07;;;2.22;;
17844;SDS011;9047;53.486;10.218;2022-07-05T15:43:23;6.75;;;1.70;;
17844;SDS011;9047;53.486;10.218;2022-07-05T15:46:02;8.35;;;5.72;;
17844;SDS011;9047;53.486;10.218;2022-07-05T15:48:41;4.35;;;1.70;;
17844;SDS011;9047;53.486;10.218;2022-07-05T15:51:28;4.93;;;1.63;;
17844;SDS011;9047;53.486;10.218;2022-07-05T15:56:32;4.20;;;1.27;;
17844;SDS011;9047;53.486;10.218;2022-07-05T15:59:03;4.45;;;1.20;;
17844;SDS011;9047;53.486;10.218;2022-07-05T16:01:43;3.47;;;1.27;;
17844;SDS011;9047;53.486;10.218;2022-07-05T16:04:23;3.40;;;0.98;;
17844;SDS011;9047;53.486;10.218;2022-07-05T16:07:08;4.40;;;1.45;;
17844;SDS011;9047;53.486;10.218;2022-07-05T16:09:54;5.30;;;1.55;;